Terminal Aerodrome Forecast
Issued by NWS Wilmington, NC

Home | Current Version | Previous Version | Text Only | Print | Product List | Glossary On
Versions: 1 2 3 4 5 6 7 8 9 10 11 12 13 14 15 16 17 18 19 20
000
FTUS42 KILM 282320
TAFLBT
TAF
KLBT 282320Z 2900/2924 19007KT P6SM VCSH SCT025 SCT060
     FM290200 VRB04KT P6SM FEW035 SCT060 SCT140
      TEMPO 2908/2912 3SM BR
     FM291400 09008KT P6SM SCT250=

USA.gov is the U.S. government's official web portal to all federal, state and local government web resources and services.